Time;durP1;ratioP1;P1;durP2;ratioP2;P2;SDS_P1;SDS_P2;PMS_P1;PMS_P2;Temp;Humidity;BMP_temperature;BMP_pressure;BME280_temperature;BME280_humidity;BME280_pressure;Samples;Min_cycle;Max_cycle;Signal;HPM_P1;HPM_P2
2022/08/24 00:01:14;;;;;;;13.90;9.98;;;;;;;;;;5065924;28;20051;-63
2022/08/24 00:03:42;;;;;;;15.15;10.90;;;;;;;;;;5067225;28;20044;-63
2022/08/24 00:06:11;;;;;;;16.63;10.43;;;;;;;;;;5065842;28;20040;-63
2022/08/24 00:08:40;;;;;;;12.50;10.13;;;;;;;;;;5060119;28;20114;-64
2022/08/24 00:11:08;;;;;;;11.25;9.65;;;;;;;;;;5064442;28;20079;-63
2022/08/24 00:13:37;;;;;;;11.88;9.18;;;;;;;;;;5067574;28;20044;-64
2022/08/24 00:16:05;;;;;;;14.73;9.70;;;;;;;;;;5064627;28;20044;-63
2022/08/24 00:18:33;;;;;;;13.27;9.85;;;;;;;;;;5066360;28;20048;-65
2022/08/24 00:21:00;;;;;;;12.18;10.57;;;;;;;;;;5064811;28;20137;-64
2022/08/24 00:23:28;;;;;;;12.45;10.57;;;;;;;;;;5066733;28;20709;-64
2022/08/24 00:25:57;;;;;;;12.93;9.88;;;;;;;;;;5061673;28;20143;-63
2022/08/24 00:28:24;;;;;;;15.38;10.30;;;;;;;;;;5066002;28;20098;-63
2022/08/24 00:30:51;;;;;;;10.77;8.60;;;;;;;;;;5063853;28;20068;-63
2022/08/24 00:33:18;;;;;;;16.35;9.60;;;;;;;;;;5067070;28;20056;-63
2022/08/24 00:35:46;;;;;;;10.90;8.75;;;;;;;;;;5066106;28;20056;-64
2022/08/24 00:38:13;;;;;;;13.10;9.30;;;;;;;;;;5062938;28;20048;-65
2022/08/24 00:40:42;;;;;;;9.77;7.40;;;;;;;;;;5066784;28;20121;-63
2022/08/24 00:43:11;;;;;;;13.38;8.18;;;;;;;;;;5064257;28;20060;-64
2022/08/24 00:45:41;;;;;;;8.82;7.70;;;;;;;;;;5059923;28;20060;-63
2022/08/24 00:48:16;;;;;;;8.68;7.25;;;;;;;;;;5065177;28;20539;-64
2022/08/24 00:50:46;;;;;;;11.95;7.00;;;;;;;;;;5065374;28;20060;-63
2022/08/24 00:53:17;;;;;;;9.75;6.68;;;;;;;;;;5063747;28;20076;-63
2022/08/24 00:55:46;;;;;;;10.10;7.50;;;;;;;;;;5064357;28;20049;-64
2022/08/24 00:58:17;;;;;;;8.48;6.78;;;;;;;;;;5066168;28;20483;-64
2022/08/24 01:00:45;;;;;;;11.10;6.68;;;;;;;;;;5065369;28;20056;-63
2022/08/24 01:03:13;;;;;;;8.88;7.30;;;;;;;;;;5065432;28;20165;-64
2022/08/24 01:05:41;;;;;;;9.05;6.45;;;;;;;;;;5064344;28;20055;-64
2022/08/24 01:08:10;;;;;;;9.02;6.70;;;;;;;;;;5053390;28;20048;-63
2022/08/24 01:10:40;;;;;;;8.75;7.03;;;;;;;;;;5056208;28;20068;-64
2022/08/24 01:13:08;;;;;;;7.60;6.30;;;;;;;;;;5059241;28;20124;-64
2022/08/24 01:15:39;;;;;;;8.80;6.30;;;;;;;;;;5066706;28;20052;-64
2022/08/24 01:20:55;;;;;;;8.60;6.68;;;;;;;;;;5058356;28;20205;-64
2022/08/24 01:23:33;;;;;;;10.10;6.88;;;;;;;;;;5058421;28;20048;-63
2022/08/24 01:26:00;;;;;;;7.53;6.20;;;;;;;;;;5063185;28;20044;-63
2022/08/24 01:28:28;;;;;;;10.88;6.00;;;;;;;;;;5059387;28;20056;-63
2022/08/24 01:30:55;;;;;;;8.05;6.93;;;;;;;;;;5067100;28;20094;-64
2022/08/24 01:33:24;;;;;;;9.75;7.00;;;;;;;;;;5064757;28;20102;-64
2022/08/24 01:35:55;;;;;;;9.32;8.23;;;;;;;;;;5062994;28;20292;-64
2022/08/24 01:38:22;;;;;;;10.10;7.90;;;;;;;;;;5064182;28;20698;-63
2022/08/24 01:40:52;;;;;;;10.02;7.82;;;;;;;;;;5061706;28;20049;-64
2022/08/24 01:43:19;;;;;;;11.30;7.38;;;;;;;;;;5055490;28;20595;-64
2022/08/24 01:45:47;;;;;;;7.72;6.93;;;;;;;;;;5065792;28;20055;-63
2022/08/24 01:48:14;;;;;;;8.40;7.57;;;;;;;;;;5065652;28;20061;-64
2022/08/24 01:50:42;;;;;;;8.60;7.43;;;;;;;;;;5065484;28;20056;-63
2022/08/24 01:53:10;;;;;;;8.57;7.18;;;;;;;;;;5065452;28;20072;-64
2022/08/24 01:55:37;;;;;;;9.05;7.55;;;;;;;;;;5061866;28;20059;-64
2022/08/24 01:58:06;;;;;;;9.30;7.63;;;;;;;;;;5063561;28;20098;-64
2022/08/24 02:00:34;;;;;;;8.60;7.10;;;;;;;;;;5066089;28;20040;-63
2022/08/24 02:03:01;;;;;;;10.73;7.18;;;;;;;;;;5061988;28;20543;-64
2022/08/24 02:05:28;;;;;;;10.15;7.78;;;;;;;;;;5068406;28;20053;-64
2022/08/24 02:07:57;;;;;;;8.70;7.00;;;;;;;;;;5059736;28;20052;-64
2022/08/24 02:10:24;;;;;;;8.63;7.10;;;;;;;;;;5061409;28;20587;-63
2022/08/24 02:12:57;;;;;;;9.80;7.43;;;;;;;;;;5063682;28;20052;-64
2022/08/24 02:15:27;;;;;;;8.50;6.82;;;;;;;;;;5063627;28;20057;-64
2022/08/24 02:17:54;;;;;;;10.00;7.50;;;;;;;;;;5062257;28;20118;-63
2022/08/24 02:20:22;;;;;;;7.82;7.00;;;;;;;;;;5062844;28;20062;-63
2022/08/24 02:22:49;;;;;;;9.02;7.40;;;;;;;;;;5061218;28;20049;-64
2022/08/24 02:25:17;;;;;;;9.20;7.80;;;;;;;;;;5059257;28;20049;-64
2022/08/24 02:27:44;;;;;;;9.32;7.13;;;;;;;;;;5061994;28;20772;-64
2022/08/24 02:30:12;;;;;;;9.43;8.02;;;;;;;;;;5063378;28;20178;-64
2022/08/24 02:32:40;;;;;;;10.18;8.45;;;;;;;;;;5059877;28;20067;-63
2022/08/24 02:35:08;;;;;;;15.98;8.95;;;;;;;;;;5062615;28;20052;-64
2022/08/24 02:37:35;;;;;;;10.57;8.45;;;;;;;;;;5055185;28;20123;-63
2022/08/24 02:40:03;;;;;;;9.73;7.32;;;;;;;;;;5061672;28;20102;-64
2022/08/24 02:42:30;;;;;;;10.35;7.68;;;;;;;;;;5063327;28;20041;-63
2022/08/24 02:44:57;;;;;;;7.35;6.25;;;;;;;;;;5064843;28;20048;-63
2022/08/24 02:47:24;;;;;;;7.88;5.97;;;;;;;;;;5064971;28;20503;-64
2022/08/24 02:49:53;;;;;;;8.77;7.50;;;;;;;;;;5063347;28;20150;-63
2022/08/24 02:52:20;;;;;;;8.38;7.07;;;;;;;;;;5063247;28;20048;-64
2022/08/24 02:54:48;;;;;;;10.40;7.05;;;;;;;;;;5049144;28;20059;-63
2022/08/24 02:57:15;;;;;;;9.27;7.85;;;;;;;;;;5057227;28;20461;-64
2022/08/24 02:59:42;;;;;;;9.35;7.65;;;;;;;;;;5059098;28;20079;-64
2022/08/24 03:02:09;;;;;;;10.73;8.68;;;;;;;;;;5054309;28;20053;-63
2022/08/24 03:04:37;;;;;;;11.80;8.88;;;;;;;;;;5060260;28;20110;-63
2022/08/24 03:07:06;;;;;;;11.52;8.98;;;;;;;;;;5058431;28;20049;-63
2022/08/24 03:09:33;;;;;;;11.50;9.10;;;;;;;;;;5057434;28;20514;-63
2022/08/24 03:12:00;;;;;;;13.90;8.95;;;;;;;;;;5058713;28;20056;-64
2022/08/24 03:14:28;;;;;;;13.73;8.90;;;;;;;;;;5062598;28;20048;-64
2022/08/24 03:16:55;;;;;;;11.48;8.15;;;;;;;;;;5059580;28;20163;-64
2022/08/24 03:19:22;;;;;;;10.77;8.70;;;;;;;;;;5062204;28;20074;-64
2022/08/24 03:21:49;;;;;;;12.77;9.07;;;;;;;;;;5063953;28;20052;-63
2022/08/24 03:24:18;;;;;;;11.57;8.48;;;;;;;;;;5071529;28;20048;-63
2022/08/24 03:26:45;;;;;;;10.45;8.18;;;;;;;;;;5065852;28;20048;-64
2022/08/24 03:29:12;;;;;;;12.52;9.82;;;;;;;;;;5062310;28;20075;-64
2022/08/24 03:31:40;;;;;;;11.98;10.15;;;;;;;;;;5066992;28;20078;-64
2022/08/24 03:34:07;;;;;;;11.70;10.20;;;;;;;;;;5063771;28;20049;-64
2022/08/24 03:36:34;;;;;;;15.68;11.32;;;;;;;;;;5056280;28;20098;-64
2022/08/24 03:39:01;;;;;;;14.18;10.85;;;;;;;;;;5062306;28;20579;-65
2022/08/24 03:41:30;;;;;;;13.15;11.18;;;;;;;;;;5062527;28;20052;-63
2022/08/24 03:43:57;;;;;;;13.38;11.48;;;;;;;;;;5066483;28;20049;-64
2022/08/24 03:46:26;;;;;;;14.77;11.13;;;;;;;;;;5065230;28;20044;-63
2022/08/24 03:48:53;;;;;;;14.32;11.02;;;;;;;;;;5067633;28;20392;-64
2022/08/24 03:51:22;;;;;;;14.48;11.82;;;;;;;;;;5069199;28;20052;-64
2022/08/24 03:53:50;;;;;;;12.73;11.30;;;;;;;;;;5062163;28;20798;-63
2022/08/24 03:56:18;;;;;;;14.60;11.93;;;;;;;;;;5063043;28;20703;-63
2022/08/24 03:58:47;;;;;;;14.05;12.02;;;;;;;;;;5066248;28;20792;-64
2022/08/24 04:01:16;;;;;;;15.80;12.63;;;;;;;;;;5061467;28;20048;-64
2022/08/24 04:03:44;;;;;;;17.73;13.88;;;;;;;;;;5059928;28;20060;-64
2022/08/24 04:06:13;;;;;;;16.45;14.43;;;;;;;;;;5069473;28;20128;-63
2022/08/24 04:08:40;;;;;;;18.70;14.02;;;;;;;;;;5061206;28;20053;-63
2022/08/24 04:11:10;;;;;;;18.00;13.15;;;;;;;;;;5061585;28;20056;-64
2022/08/24 04:13:37;;;;;;;14.93;11.98;;;;;;;;;;5064352;28;20060;-63
2022/08/24 04:16:07;;;;;;;23.02;13.02;;;;;;;;;;5061125;28;20052;-63
2022/08/24 04:18:34;;;;;;;15.90;12.60;;;;;;;;;;5065917;28;20052;-64
2022/08/24 04:21:01;;;;;;;17.20;12.90;;;;;;;;;;5063197;28;20098;-64
2022/08/24 04:23:28;;;;;;;15.40;11.45;;;;;;;;;;5061424;28;20056;-64
2022/08/24 04:25:56;;;;;;;17.67;12.63;;;;;;;;;;5063332;28;20049;-63
2022/08/24 04:28:23;;;;;;;16.75;12.82;;;;;;;;;;5066593;28;20490;-64
2022/08/24 04:30:50;;;;;;;16.05;12.95;;;;;;;;;;5060364;28;20672;-63
2022/08/24 04:33:19;;;;;;;18.20;11.45;;;;;;;;;;5063695;28;20049;-63
2022/08/24 04:35:48;;;;;;;15.77;12.80;;;;;;;;;;5064966;28;20705;-63
2022/08/24 04:38:16;;;;;;;18.58;12.52;;;;;;;;;;5063662;28;20048;-64
2022/08/24 04:40:47;;;;;;;16.58;12.45;;;;;;;;;;5061649;28;20044;-63
2022/08/24 04:43:14;;;;;;;14.68;11.68;;;;;;;;;;5063214;28;20102;-64
2022/08/24 04:45:42;;;;;;;13.63;11.52;;;;;;;;;;5062233;28;20074;-63
2022/08/24 04:48:09;;;;;;;16.67;11.95;;;;;;;;;;5064957;28;20450;-63
2022/08/24 04:50:38;;;;;;;16.85;13.27;;;;;;;;;;5070289;28;20059;-63
2022/08/24 04:53:06;;;;;;;16.23;12.82;;;;;;;;;;5065668;28;20052;-63
2022/08/24 04:55:34;;;;;;;18.00;13.60;;;;;;;;;;5065265;28;20106;-64
2022/08/24 04:58:01;;;;;;;15.70;12.35;;;;;;;;;;5060061;28;20044;-65
2022/08/24 05:00:28;;;;;;;17.50;14.00;;;;;;;;;;5062893;28;20048;-63
2022/08/24 05:02:56;;;;;;;16.17;12.98;;;;;;;;;;5057604;28;20507;-63
2022/08/24 05:05:23;;;;;;;18.48;12.77;;;;;;;;;;5052939;28;20041;-63
2022/08/24 05:07:51;;;;;;;17.95;13.85;;;;;;;;;;5063995;28;20056;-63
2022/08/24 05:10:19;;;;;;;17.35;13.68;;;;;;;;;;5063435;28;20048;-64
2022/08/24 05:12:47;;;;;;;19.98;14.00;;;;;;;;;;5062362;28;20056;-63
2022/08/24 05:15:15;;;;;;;17.45;14.38;;;;;;;;;;5060040;28;20415;-63
2022/08/24 05:17:42;;;;;;;16.92;13.73;;;;;;;;;;5063019;28;20056;-65
2022/08/24 05:20:10;;;;;;;20.98;14.68;;;;;;;;;;5064221;28;20087;-64
2022/08/24 05:22:38;;;;;;;16.23;12.98;;;;;;;;;;5058356;28;20056;-64
2022/08/24 05:25:07;;;;;;;23.00;17.23;;;;;;;;;;5064009;28;20106;-63
2022/08/24 05:27:34;;;;;;;18.35;14.68;;;;;;;;;;5062478;28;20048;-64
2022/08/24 05:30:02;;;;;;;19.33;16.33;;;;;;;;;;5063403;28;20499;-64
2022/08/24 05:32:29;;;;;;;19.95;13.55;;;;;;;;;;5061918;28;20051;-63
2022/08/24 05:34:56;;;;;;;21.48;13.90;;;;;;;;;;5064821;28;20526;-63
2022/08/24 05:37:23;;;;;;;21.05;13.95;;;;;;;;;;5062304;28;20060;-64
2022/08/24 05:39:51;;;;;;;18.65;14.57;;;;;;;;;;5065667;28;20052;-64
2022/08/24 05:42:19;;;;;;;20.70;15.60;;;;;;;;;;5063331;28;20139;-63
2022/08/24 05:44:46;;;;;;;26.85;18.88;;;;;;;;;;5064986;28;20053;-63
2022/08/24 05:47:14;;;;;;;22.60;17.33;;;;;;;;;;5062489;28;20506;-63
2022/08/24 05:49:42;;;;;;;20.13;16.85;;;;;;;;;;5062798;28;20060;-64
2022/08/24 05:52:09;;;;;;;27.67;19.75;;;;;;;;;;5062644;28;20056;-63
2022/08/24 05:54:36;;;;;;;27.05;19.77;;;;;;;;;;5074559;28;20052;-63
2022/08/24 05:57:05;;;;;;;26.42;18.73;;;;;;;;;;5059723;28;20139;-63
2022/08/24 05:59:34;;;;;;;22.73;18.27;;;;;;;;;;5058980;28;20041;-65
2022/08/24 06:02:01;;;;;;;29.80;21.17;;;;;;;;;;5057603;28;20052;-64
2022/08/24 06:04:28;;;;;;;25.20;21.02;;;;;;;;;;5066525;28;20487;-64
2022/08/24 06:06:55;;;;;;;25.95;21.17;;;;;;;;;;5056987;28;20051;-64
2022/08/24 06:09:22;;;;;;;26.58;19.13;;;;;;;;;;5059983;28;20052;-64
2022/08/24 06:11:50;;;;;;;23.92;21.23;;;;;;;;;;5062685;28;20045;-63
2022/08/24 06:14:18;;;;;;;31.05;22.38;;;;;;;;;;5059421;28;20056;-64
2022/08/24 06:16:48;;;;;;;26.58;19.58;;;;;;;;;;5059045;28;20063;-63
2022/08/24 06:19:16;;;;;;;30.48;21.90;;;;;;;;;;5060789;28;20076;-63
2022/08/24 06:21:45;;;;;;;30.95;19.50;;;;;;;;;;5059315;28;20118;-64
2022/08/24 06:24:14;;;;;;;28.42;21.63;;;;;;;;;;5064040;28;20146;-64
2022/08/24 06:29:27;;;;;;;34.72;22.58;;;;;;;;;;5058866;28;20049;-63
2022/08/24 06:31:55;;;;;;;36.53;23.08;;;;;;;;;;5062207;28;20056;-64
2022/08/24 06:34:24;;;;;;;33.13;23.52;;;;;;;;;;5059379;28;20048;-64
2022/08/24 06:36:52;;;;;;;32.15;22.55;;;;;;;;;;5064855;28;20052;-64
2022/08/24 06:39:19;;;;;;;33.55;23.27;;;;;;;;;;5061527;28;20044;-63
2022/08/24 06:41:46;;;;;;;32.00;22.63;;;;;;;;;;5062496;28;20076;-64
2022/08/24 06:44:13;;;;;;;30.80;22.38;;;;;;;;;;5063038;28;20063;-63
2022/08/24 06:46:40;;;;;;;35.25;22.23;;;;;;;;;;5057319;28;20048;-64
2022/08/24 06:49:09;;;;;;;35.78;22.85;;;;;;;;;;5059120;28;20057;-64
2022/08/24 06:51:37;;;;;;;31.42;22.27;;;;;;;;;;5062439;28;20056;-65
2022/08/24 06:54:04;;;;;;;35.78;23.50;;;;;;;;;;5063609;28;20056;-64
2022/08/24 06:56:31;;;;;;;32.33;21.58;;;;;;;;;;5058021;28;20107;-64
2022/08/24 06:59:02;;;;;;;32.53;22.73;;;;;;;;;;5063024;28;20040;-63
2022/08/24 07:01:29;;;;;;;27.40;21.58;;;;;;;;;;5063585;28;20130;-64
2022/08/24 07:03:56;;;;;;;29.45;19.38;;;;;;;;;;5061411;28;20056;-64
2022/08/24 07:06:25;;;;;;;30.75;21.00;;;;;;;;;;5061543;28;20286;-63
2022/08/24 07:08:55;;;;;;;28.52;20.60;;;;;;;;;;5062212;28;20491;-64
2022/08/24 07:11:22;;;;;;;27.88;19.95;;;;;;;;;;5059542;28;20044;-64
2022/08/24 07:13:50;;;;;;;27.63;20.10;;;;;;;;;;5063448;28;20048;-63
2022/08/24 07:16:18;;;;;;;31.23;21.80;;;;;;;;;;5058384;28;20056;-64
2022/08/24 07:18:45;;;;;;;30.70;20.42;;;;;;;;;;5055362;28;20091;-64
2022/08/24 07:21:12;;;;;;;28.63;21.67;;;;;;;;;;5060278;28;20388;-63
2022/08/24 07:23:41;;;;;;;31.30;20.85;;;;;;;;;;5061879;28;20048;-63
2022/08/24 07:26:09;;;;;;;36.20;22.05;;;;;;;;;;5062816;28;20106;-64
2022/08/24 07:28:37;;;;;;;33.65;20.40;;;;;;;;;;5063349;28;20098;-63
2022/08/24 07:31:04;;;;;;;31.10;20.15;;;;;;;;;;5062745;28;20141;-63
2022/08/24 07:33:32;;;;;;;32.58;20.55;;;;;;;;;;5066949;28;20049;-64
2022/08/24 07:35:59;;;;;;;29.08;18.60;;;;;;;;;;5058156;28;20106;-64
2022/08/24 07:38:28;;;;;;;25.85;18.50;;;;;;;;;;5065538;28;20051;-64
2022/08/24 07:40:56;;;;;;;24.48;16.90;;;;;;;;;;5059212;28;20131;-63
2022/08/24 07:43:23;;;;;;;31.42;18.65;;;;;;;;;;5064627;28;20060;-63
2022/08/24 07:45:51;;;;;;;20.45;16.15;;;;;;;;;;5058532;28;20052;-64
2022/08/24 07:48:18;;;;;;;23.98;16.08;;;;;;;;;;5057893;28;20055;-63
2022/08/24 07:50:46;;;;;;;28.95;16.35;;;;;;;;;;5063265;28;20049;-64
2022/08/24 07:53:14;;;;;;;24.42;17.15;;;;;;;;;;5061414;28;20044;-63
2022/08/24 07:55:42;;;;;;;24.95;16.52;;;;;;;;;;5061834;28;20047;-63
2022/08/24 07:58:11;;;;;;;23.67;15.77;;;;;;;;;;5057167;28;20052;-64
2022/08/24 08:00:38;;;;;;;20.35;14.75;;;;;;;;;;5060095;28;20052;-64
2022/08/24 08:03:05;;;;;;;22.90;15.30;;;;;;;;;;5060657;28;20056;-64
2022/08/24 08:05:32;;;;;;;18.08;14.75;;;;;;;;;;5066396;28;20036;-64
2022/08/24 08:08:00;;;;;;;19.80;15.38;;;;;;;;;;5061906;28;20048;-63
2022/08/24 08:10:29;;;;;;;30.20;16.63;;;;;;;;;;5064599;28;20048;-63
2022/08/24 08:12:56;;;;;;;18.55;14.57;;;;;;;;;;5065036;28;20053;-64
2022/08/24 08:15:25;;;;;;;21.73;14.73;;;;;;;;;;5060643;28;20416;-64
2022/08/24 08:17:53;;;;;;;22.27;15.25;;;;;;;;;;5068614;28;20586;-64
2022/08/24 08:20:20;;;;;;;18.33;14.85;;;;;;;;;;5062883;28;20052;-63
2022/08/24 08:25:33;;;;;;;20.92;14.65;;;;;;;;;;5059949;28;20053;-64
2022/08/24 08:28:00;;;;;;;17.17;14.73;;;;;;;;;;5060986;28;20060;-63
2022/08/24 08:30:29;;;;;;;17.80;12.82;;;;;;;;;;5063896;28;20387;-64
2022/08/24 08:32:57;;;;;;;13.95;11.38;;;;;;;;;;5057088;28;20052;-64
2022/08/24 08:35:25;;;;;;;16.67;10.10;;;;;;;;;;5063060;28;20048;-65
2022/08/24 08:37:52;;;;;;;11.85;8.85;;;;;;;;;;5062485;28;20066;-64
2022/08/24 08:40:34;;;;;;;14.60;9.40;;;;;;;;;;5063964;28;20088;-64
2022/08/24 08:43:04;;;;;;;11.68;8.57;;;;;;;;;;5063400;28;20048;-65
2022/08/24 08:45:35;;;;;;;17.02;8.95;;;;;;;;;;5063868;28;20524;-63
2022/08/24 08:48:20;;;;;;;14.68;10.32;;;;;;;;;;5067844;28;20816;-63
2022/08/24 08:51:02;;;;;;;12.98;9.60;;;;;;;;;;5056454;28;20449;-63
2022/08/24 08:53:39;;;;;;;12.95;10.13;;;;;;;;;;5065765;28;20426;-63
2022/08/24 08:56:09;;;;;;;15.57;11.15;;;;;;;;;;5062904;28;20214;-64
2022/08/24 08:58:52;;;;;;;17.27;11.43;;;;;;;;;;5062873;28;20049;-64
2022/08/24 09:01:27;;;;;;;16.23;9.25;;;;;;;;;;5062230;28;20465;-65
2022/08/24 09:04:10;;;;;;;15.07;10.25;;;;;;;;;;5059333;28;20048;-65
2022/08/24 09:06:43;;;;;;;18.50;10.70;;;;;;;;;;5065288;28;20064;-64
2022/08/24 09:09:10;;;;;;;;;;;;;;;;;;5056596;28;20150;-64
2022/08/24 09:11:40;;;;;;;12.70;10.55;;;;;;;;;;5066795;28;19977;-64
2022/08/24 09:14:14;;;;;;;14.48;11.10;;;;;;;;;;5066353;28;20075;-64
2022/08/24 09:16:53;;;;;;;11.95;10.18;;;;;;;;;;5057841;28;20056;-63
2022/08/24 09:19:27;;;;;;;15.63;11.80;;;;;;;;;;5058706;28;20044;-64
2022/08/24 09:22:01;;;;;;;12.25;10.40;;;;;;;;;;5061527;28;20117;-63
2022/08/24 09:24:41;;;;;;;13.27;9.55;;;;;;;;;;5058098;28;20082;-63
2022/08/24 09:27:13;;;;;;;15.70;11.52;;;;;;;;;;5064074;28;20075;-64
2022/08/24 09:29:47;;;;;;;15.68;12.23;;;;;;;;;;5058797;28;20150;-64
2022/08/24 09:32:26;;;;;;;14.02;11.65;;;;;;;;;;5060353;28;20537;-64
2022/08/24 09:34:58;;;;;;;16.30;11.18;;;;;;;;;;5063167;28;20056;-63
2022/08/24 09:37:31;;;;;;;16.90;11.48;;;;;;;;;;5059736;28;20127;-63
2022/08/24 09:39:58;;;;;;;;;;;;;;;;;;5062873;28;20084;-64
2022/08/24 09:42:36;;;;;;;16.42;11.70;;;;;;;;;;5059293;28;19956;-64
2022/08/24 09:45:20;;;;;;;17.15;10.27;;;;;;;;;;5065810;28;20063;-63
2022/08/24 09:48:02;;;;;;;12.80;10.27;;;;;;;;;;5072498;28;20064;-65
2022/08/24 09:50:45;;;;;;;16.23;10.80;;;;;;;;;;5063117;28;20413;-63
2022/08/24 09:53:33;;;;;;;11.43;7.63;;;;;;;;;;5062152;28;20048;-64
2022/08/24 09:56:05;;;;;;;13.60;8.60;;;;;;;;;;5062027;28;20053;-65
2022/08/24 09:58:37;;;;;;;10.45;6.95;;;;;;;;;;5061163;28;20102;-64
2022/08/24 10:01:09;;;;;;;13.15;7.70;;;;;;;;;;5055815;28;20065;-63
2022/08/24 10:03:47;;;;;;;10.88;6.97;;;;;;;;;;5062317;28;20044;-64
2022/08/24 10:06:24;;;;;;;11.70;7.30;;;;;;;;;;5063026;28;20067;-64
2022/08/24 10:09:02;;;;;;;10.02;6.07;;;;;;;;;;5060565;28;20052;-64
2022/08/24 10:11:35;;;;;;;12.73;6.53;;;;;;;;;;5066193;28;20575;-64
2022/08/24 10:14:07;;;;;;;15.50;7.20;;;;;;;;;;5056619;28;20099;-64
2022/08/24 10:16:38;;;;;;;11.07;6.72;;;;;;;;;;5058223;28;20052;-64
2022/08/24 10:19:17;;;;;;;10.93;6.75;;;;;;;;;;5061253;28;20049;-64
2022/08/24 10:21:48;;;;;;;10.68;7.20;;;;;;;;;;5063647;28;20835;-63
2022/08/24 10:24:28;;;;;;;7.60;5.07;;;;;;;;;;5064522;28;20056;-64
2022/08/24 10:27:11;;;;;;;11.57;5.85;;;;;;;;;;5064165;28;20106;-64
2022/08/24 10:29:53;;;;;;;13.43;5.85;;;;;;;;;;5057860;28;20108;-65
2022/08/24 10:32:27;;;;;;;16.15;6.15;;;;;;;;;;5060342;28;20050;-64
2022/08/24 10:35:01;;;;;;;10.18;5.00;;;;;;;;;;5061218;28;20055;-64
2022/08/24 10:37:40;;;;;;;8.57;5.10;;;;;;;;;;5064524;28;20446;-64
2022/08/24 10:40:16;;;;;;;12.40;4.97;;;;;;;;;;5062210;28;20040;-65
2022/08/24 10:45:57;;;;;;;7.97;4.97;;;;;;;;;;5062219;28;20294;-65
2022/08/24 10:48:36;;;;;;;8.93;4.45;;;;;;;;;;5062696;28;20052;-64
2022/08/24 10:51:13;;;;;;;6.55;3.40;;;;;;;;;;5065015;28;20056;-64
2022/08/24 10:53:40;;;;;;;5.60;2.83;;;;;;;;;;5060329;28;20535;-64
2022/08/24 10:56:10;;;;;;;7.30;2.28;;;;;;;;;;5064045;28;20048;-64
2022/08/24 10:58:45;;;;;;;5.15;3.30;;;;;;;;;;5055750;28;20128;-63
2022/08/24 11:01:21;;;;;;;5.20;2.00;;;;;;;;;;5064747;28;20063;-65
2022/08/24 11:03:50;;;;;;;7.57;2.85;;;;;;;;;;5061610;28;20051;-64
2022/08/24 11:06:19;;;;;;;2.88;2.00;;;;;;;;;;5064909;28;20098;-63
2022/08/24 11:08:52;;;;;;;3.42;2.00;;;;;;;;;;5060434;28;20056;-64
2022/08/24 11:11:24;;;;;;;3.72;2.03;;;;;;;;;;5059291;28;20067;-64
2022/08/24 11:13:52;;;;;;;3.47;2.00;;;;;;;;;;5065136;28;20048;-64
2022/08/24 11:16:30;;;;;;;7.30;3.03;;;;;;;;;;5057331;28;20040;-64
2022/08/24 11:18:58;;;;;;;6.22;2.00;;;;;;;;;;5063453;28;20052;-64
2022/08/24 11:21:35;;;;;;;3.45;1.80;;;;;;;;;;5062227;28;20048;-64
2022/08/24 11:24:04;;;;;;;5.10;1.73;;;;;;;;;;5062797;28;20052;-64
2022/08/24 11:26:31;;;;;;;2.95;2.25;;;;;;;;;;5060389;28;20044;-64
2022/08/24 11:29:00;;;;;;;4.20;1.70;;;;;;;;;;5065891;28;20049;-64
2022/08/24 11:31:29;;;;;;;6.28;2.90;;;;;;;;;;5062643;28;20670;-63
2022/08/24 11:34:00;;;;;;;4.32;2.38;;;;;;;;;;5063230;28;20063;-64
2022/08/24 11:36:28;;;;;;;5.53;1.70;;;;;;;;;;5062037;28;20068;-64
2022/08/24 11:41:57;;;;;;;2.72;2.10;;;;;;;;;;5099965;27;20116;-64
2022/08/24 11:44:34;;;;;;;5.38;2.15;;;;;;;;;;5093598;28;20589;-64
2022/08/24 11:47:04;;;;;;;4.63;1.38;;;;;;;;;;5098918;28;20075;-64
2022/08/24 11:49:36;;;;;;;3.67;1.70;;;;;;;;;;5104827;28;20054;-64
2022/08/24 11:52:08;;;;;;;3.55;1.77;;;;;;;;;;5102334;28;20552;-63
2022/08/24 11:54:38;;;;;;;3.20;1.60;;;;;;;;;;5100347;28;20044;-64
2022/08/24 11:57:09;;;;;;;3.88;2.30;;;;;;;;;;5078017;28;20056;-64
2022/08/24 11:59:44;;;;;;;3.05;2.25;;;;;;;;;;5096173;28;20234;-64
2022/08/24 12:02:13;;;;;;;4.00;2.50;;;;;;;;;;5102077;28;20063;-65
2022/08/24 12:04:45;;;;;;;5.28;2.10;;;;;;;;;;5094577;28;20533;-63
2022/08/24 12:07:18;;;;;;;3.70;2.20;;;;;;;;;;5099134;28;20094;-64
2022/08/24 12:09:50;;;;;;;4.22;1.80;;;;;;;;;;5095256;28;20131;-65
2022/08/24 12:12:21;;;;;;;3.38;1.42;;;;;;;;;;5102216;28;20093;-64
2022/08/24 12:14:53;;;;;;;4.13;1.63;;;;;;;;;;5076699;28;20113;-64
2022/08/24 12:17:23;;;;;;;4.70;1.90;;;;;;;;;;5105333;28;20534;-64
2022/08/24 12:19:51;;;;;;;2.60;1.70;;;;;;;;;;5101858;28;20514;-65
2022/08/24 12:22:19;;;;;;;1.58;1.45;;;;;;;;;;5101534;28;20976;-64
2022/08/24 12:24:47;;;;;;;3.25;1.88;;;;;;;;;;5086405;28;20106;-64
2022/08/24 12:27:17;;;;;;;4.53;1.27;;;;;;;;;;5079087;28;20055;-64
2022/08/24 12:29:47;;;;;;;4.82;1.63;;;;;;;;;;5082552;28;20579;-64
2022/08/24 12:32:16;;;;;;;7.70;1.65;;;;;;;;;;5080012;28;20040;-64
2022/08/24 12:34:49;;;;;;;2.13;1.48;;;;;;;;;;5077622;28;20571;-64
2022/08/24 12:37:19;;;;;;;2.20;1.27;;;;;;;;;;5075678;28;20110;-64
2022/08/24 12:39:49;;;;;;;1.67;1.20;;;;;;;;;;5076596;28;20706;-64
2022/08/24 12:42:17;;;;;;;3.00;1.40;;;;;;;;;;5082088;28;20722;-64
2022/08/24 12:44:49;;;;;;;2.13;1.60;;;;;;;;;;5077624;28;20397;-64
2022/08/24 12:47:22;;;;;;;1.40;1.17;;;;;;;;;;5065224;28;20117;-64
2022/08/24 12:49:54;;;;;;;2.45;1.50;;;;;;;;;;5070908;28;20045;-65
2022/08/24 12:52:38;;;;;;;1.92;1.40;;;;;;;;;;5072847;28;20058;-65
2022/08/24 12:55:23;;;;;;;4.78;1.20;;;;;;;;;;5065330;28;20053;-64
2022/08/24 12:57:53;;;;;;;3.72;1.50;;;;;;;;;;5066661;28;20562;-64
2022/08/24 13:00:23;;;;;;;1.75;1.38;;;;;;;;;;5065526;28;20110;-65
2022/08/24 13:02:55;;;;;;;2.45;1.55;;;;;;;;;;5044677;28;20065;-65
2022/08/24 13:05:23;;;;;;;2.33;1.70;;;;;;;;;;5066651;28;20064;-64
2022/08/24 13:07:51;;;;;;;2.20;1.55;;;;;;;;;;5063880;28;20114;-64
2022/08/24 13:10:33;;;;;;;2.65;1.50;;;;;;;;;;5069170;28;20815;-64
2022/08/24 13:13:00;;;;;;;;;;;;;;;;;;5069051;28;20056;-64
2022/08/24 13:15:42;;;;;;;2.45;1.80;;;;;;;;;;5066922;28;20534;-65
2022/08/24 13:18:25;;;;;;;2.55;1.73;;;;;;;;;;5055324;28;20056;-64
2022/08/24 13:20:52;;;;;;;;;;;;;;;;;;5063648;28;20340;-65
2022/08/24 13:23:21;;;;;;;2.67;1.92;;;;;;;;;;5066381;28;19935;-65
2022/08/24 13:25:54;;;;;;;3.22;1.83;;;;;;;;;;5069703;28;20136;-65
2022/08/24 13:28:40;;;;;;;2.13;1.90;;;;;;;;;;5066567;28;20756;-64
2022/08/24 13:31:30;;;;;;;4.45;1.70;;;;;;;;;;5068713;28;20063;-65
2022/08/24 13:34:00;;;;;;;2.75;2.00;;;;;;;;;;5066037;28;20434;-65
2022/08/24 13:36:48;;;;;;;4.35;2.10;;;;;;;;;;5058013;28;20676;-65
2022/08/24 13:39:36;;;;;;;2.55;1.98;;;;;;;;;;5062479;28;20052;-64
2022/08/24 13:42:08;;;;;;;9.80;8.38;;;;;;;;;;5061893;28;20055;-64
2022/08/24 13:44:46;;;;;;;6.43;5.82;;;;;;;;;;5066686;28;20125;-65
2022/08/24 13:47:16;;;;;;;9.60;6.00;;;;;;;;;;5068782;28;20053;-64
2022/08/24 13:49:51;;;;;;;7.47;5.47;;;;;;;;;;5063406;28;20109;-64
2022/08/24 13:52:25;;;;;;;8.27;7.00;;;;;;;;;;5067030;28;20079;-64
2022/08/24 13:55:03;;;;;;;8.68;7.43;;;;;;;;;;5066982;28;20142;-65
2022/08/24 13:57:37;;;;;;;7.38;6.68;;;;;;;;;;5061881;28;20144;-65
2022/08/24 14:00:31;;;;;;;7.05;6.30;;;;;;;;;;5062753;28;20040;-64
2022/08/24 14:03:02;;;;;;;8.02;7.25;;;;;;;;;;5064527;28;20107;-64
2022/08/24 14:05:34;;;;;;;7.20;6.50;;;;;;;;;;5046373;28;20057;-66
2022/08/24 14:08:07;;;;;;;7.15;6.45;;;;;;;;;;5063719;28;20077;-64
2022/08/24 14:10:42;;;;;;;8.38;7.20;;;;;;;;;;5070399;28;20045;-64
2022/08/24 14:13:20;;;;;;;7.25;6.03;;;;;;;;;;5059999;28;20045;-63
2022/08/24 14:17:50;;;;;;;6.35;5.75;;;;;;;;;;5062998;28;20056;-63
2022/08/24 14:18:45;;;;;;;7.32;6.50;;;;;;;;;;5060459;28;20080;-64
2022/08/24 14:21:14;;;;;;;8.18;6.28;;;;;;;;;;5064912;28;20071;-63
2022/08/24 14:23:51;;;;;;;10.90;4.80;;;;;;;;;;5063518;28;20048;-64
2022/08/24 14:26:37;;;;;;;5.50;4.95;;;;;;;;;;5049054;28;20048;-64
2022/08/24 14:29:23;;;;;;;7.28;4.57;;;;;;;;;;5058862;28;20058;-63
2022/08/24 14:32:24;;;;;;;7.85;4.90;;;;;;;;;;5070607;28;20677;-63
2022/08/24 14:34:56;;;;;;;7.20;5.05;;;;;;;;;;5058874;28;20567;-63
2022/08/24 14:37:25;;;;;;;6.93;5.15;;;;;;;;;;5062741;28;20408;-64
2022/08/24 14:39:55;;;;;;;8.18;5.07;;;;;;;;;;5061843;28;20049;-63
2022/08/24 14:42:24;;;;;;;6.70;5.25;;;;;;;;;;5063883;28;20492;-64
2022/08/24 14:44:56;;;;;;;6.07;4.85;;;;;;;;;;5058362;28;20040;-63
2022/08/24 14:47:32;;;;;;;7.13;5.57;;;;;;;;;;5042992;28;20061;-63
2022/08/24 14:50:06;;;;;;;5.07;4.47;;;;;;;;;;5060039;28;20055;-63
2022/08/24 14:52:42;;;;;;;4.63;3.72;;;;;;;;;;5060847;28;20442;-64
2022/08/24 14:55:12;;;;;;;6.03;3.30;;;;;;;;;;5058122;28;20053;-64
2022/08/24 14:57:48;;;;;;;4.18;3.55;;;;;;;;;;5065510;28;20664;-64
2022/08/24 15:00:16;;;;;;;8.57;4.22;;;;;;;;;;5063903;28;20442;-63
2022/08/24 15:02:53;;;;;;;4.28;3.75;;;;;;;;;;5050316;28;20048;-64
2022/08/24 15:05:24;;;;;;;5.90;4.28;;;;;;;;;;5063973;28;20052;-63